EPKT/KTW METAR and TAF weather

Enter ICAO airport designator
Station Type Date Time Source
EPKT METAR 2020/12/05 05:00 UTC NOAA

EPKT 050500Z 13011KT CAVOK 04/02 Q1005


Station Type Date Time Source
EPKT Decoded METAR 2020/12/05 05:00 UTC NOAA

Katowice, Poland (EPKT) 50-14N 019-02E 284M
Dec 05, 2020 - 12:00 AM EST / 2020.12.05 0500 UTC
Wind: from the SE (130 degrees) at 13 MPH (11 KT):0
Visibility: greater than 7 mile(s):0
Temperature: 39 F (4 C)
Dew Point: 35 F (2 C)
Relative Humidity: 86%
Pressure (altimeter): 29.68 in. Hg (1005 hPa)
ob: EPKT 050500Z 13011KT CAVOK 04/02 Q1005
cycle: 5

Station Type Date Time Source
EPKT TAF 2020/12/04 18:33 UTC NOAA

TAF EPKT 041730Z 0418/0518 10008KT CAVOK
TEMPO 0418/0514 12015G25KT

Example: see airport list